createdAt,value
2023-05-04T00:01:29.486Z,8.51
2023-05-04T00:04:32.469Z,8.35
2023-05-04T00:07:35.376Z,8.27
2023-05-04T00:10:38.132Z,8.17
2023-05-04T00:13:40.939Z,8.02
2023-05-04T00:16:44.382Z,7.99
2023-05-04T00:19:47.236Z,8.00
2023-05-04T00:22:50.090Z,8.12
2023-05-04T00:25:52.803Z,8.15
2023-05-04T00:28:56.172Z,8.13
2023-05-04T00:31:59.226Z,8.05
2023-05-04T00:35:02.292Z,7.95
2023-05-04T00:38:05.850Z,7.94
2023-05-04T00:41:08.541Z,8.05
2023-05-04T00:44:11.425Z,8.06
2023-05-04T00:47:14.260Z,7.95
2023-05-04T00:50:17.372Z,7.90
2023-05-04T00:53:19.977Z,7.84
2023-05-04T00:56:26.281Z,7.76
2023-05-04T00:59:28.907Z,7.81
2023-05-04T01:02:32.447Z,7.82
2023-05-04T01:05:39.175Z,7.80
2023-05-04T01:08:47.179Z,7.76
2023-05-04T01:12:08.633Z,7.74
2023-05-04T01:15:12.787Z,7.88
2023-05-04T01:18:17.098Z,7.88
2023-05-04T01:21:19.776Z,7.91
2023-05-04T01:24:23.333Z,7.96
2023-05-04T01:27:43.683Z,7.95
2023-05-04T01:30:51.697Z,7.95
2023-05-04T01:33:56.969Z,7.95
2023-05-04T01:36:59.841Z,7.88
2023-05-04T01:40:03.054Z,7.88
2023-05-04T01:43:06.397Z,7.93
2023-05-04T01:46:09.294Z,7.92
2023-05-04T01:49:12.169Z,7.97
2023-05-04T01:52:14.855Z,8.03
2023-05-04T01:55:17.551Z,7.97
2023-05-04T01:58:20.578Z,7.92
2023-05-04T02:01:23.823Z,7.87
2023-05-04T02:04:26.808Z,7.73
2023-05-04T02:07:29.810Z,7.63
2023-05-04T02:10:32.523Z,7.47
2023-05-04T02:13:35.241Z,7.45
2023-05-04T02:16:38.217Z,7.43
2023-05-04T02:19:41.121Z,7.44
2023-05-04T02:22:44.210Z,7.21
2023-05-04T02:25:46.855Z,7.14
2023-05-04T02:28:49.648Z,7.14
2023-05-04T02:31:52.625Z,7.00
2023-05-04T02:34:55.375Z,7.05
2023-05-04T02:37:58.138Z,7.10
2023-05-04T02:41:00.808Z,7.10
2023-05-04T02:44:03.753Z,7.17
2023-05-04T02:47:08.016Z,7.17
2023-05-04T02:50:11.557Z,7.21
2023-05-04T02:53:14.243Z,7.17
2023-05-04T02:56:17.138Z,7.25
2023-05-04T02:59:20.035Z,7.26
2023-05-04T03:02:22.860Z,7.27
2023-05-04T03:05:25.624Z,7.36
2023-05-04T03:08:29.853Z,7.36
2023-05-04T03:11:32.517Z,7.18
2023-05-04T03:14:35.371Z,7.18
2023-05-04T03:17:38.817Z,7.13
2023-05-04T03:20:42.357Z,7.12
2023-05-04T03:23:48.706Z,7.09
2023-05-04T03:26:51.501Z,7.08
2023-05-04T03:29:54.394Z,6.94
2023-05-04T03:32:58.498Z,6.89
2023-05-04T03:36:01.298Z,6.80
2023-05-04T03:39:04.004Z,6.74
2023-05-04T03:42:08.768Z,6.78
2023-05-04T03:45:11.890Z,6.89
2023-05-04T03:48:15.700Z,6.98
2023-05-04T03:51:20.280Z,6.98
2023-05-04T03:54:23.099Z,7.02
2023-05-04T03:57:25.847Z,6.98
2023-05-04T04:00:30.892Z,6.98
2023-05-04T04:03:43.777Z,7.00
2023-05-04T04:06:47.813Z,7.04
2023-05-04T04:09:55.960Z,7.06
2023-05-04T04:12:58.665Z,7.11
2023-05-04T04:16:01.418Z,8.93
2023-05-04T04:19:04.133Z,12.44
2023-05-04T04:22:06.935Z,13.25
2023-05-04T04:25:10.711Z,14.24
2023-05-04T04:28:14.357Z,14.85
2023-05-04T04:31:18.937Z,14.84
2023-05-04T04:34:22.581Z,14.96
2023-05-04T04:37:25.420Z,14.21
2023-05-04T04:40:28.186Z,12.16
2023-05-04T04:43:31.205Z,10.88
2023-05-04T04:46:34.504Z,10.58
2023-05-04T04:49:37.510Z,10.18
2023-05-04T04:52:41.668Z,10.14
2023-05-04T04:55:44.961Z,9.95
2023-05-04T04:58:51.297Z,9.86
2023-05-04T05:01:54.263Z,9.79
2023-05-04T05:04:57.634Z,9.88
2023-05-04T05:08:00.863Z,10.07
2023-05-04T05:11:04.249Z,10.06
2023-05-04T05:14:07.156Z,10.03
2023-05-04T05:17:10.573Z,9.92
2023-05-04T05:20:14.494Z,10.17
2023-05-04T05:23:17.323Z,10.48
2023-05-04T05:26:21.264Z,10.35
2023-05-04T05:29:24.305Z,10.62
2023-05-04T05:32:27.155Z,10.50
2023-05-04T05:35:30.113Z,11.02
2023-05-04T05:38:33.117Z,11.09
2023-05-04T05:41:35.837Z,11.28
2023-05-04T05:44:38.443Z,11.53
2023-05-04T05:47:41.260Z,11.87
2023-05-04T05:50:44.048Z,11.55
2023-05-04T05:53:46.945Z,11.83
2023-05-04T05:56:49.841Z,11.97
2023-05-04T05:59:52.573Z,12.19
2023-05-04T06:02:56.331Z,12.19
2023-05-04T06:05:59.147Z,12.55
2023-05-04T06:09:01.792Z,12.44
2023-05-04T06:12:07.160Z,12.46
2023-05-04T06:15:10.409Z,12.93
2023-05-04T06:18:13.276Z,12.70
2023-05-04T06:21:16.034Z,12.48
2023-05-04T06:24:18.796Z,13.01
2023-05-04T06:27:22.336Z,13.05
2023-05-04T06:30:27.175Z,12.89
2023-05-04T06:33:30.133Z,12.81
2023-05-04T06:36:32.892Z,12.82
2023-05-04T06:39:38.486Z,13.30
2023-05-04T06:42:41.651Z,13.29
2023-05-04T06:45:45.069Z,13.55
2023-05-04T06:48:47.836Z,13.44
2023-05-04T06:51:50.590Z,13.38
2023-05-04T06:54:53.240Z,13.78
2023-05-04T06:57:55.948Z,13.69
2023-05-04T07:00:58.933Z,13.93
2023-05-04T07:04:01.986Z,13.87
2023-05-04T07:07:04.955Z,13.94
2023-05-04T07:10:08.656Z,14.15
2023-05-04T07:13:11.712Z,14.24
2023-05-04T07:16:14.487Z,14.46
2023-05-04T07:19:17.331Z,14.57
2023-05-04T07:22:21.450Z,14.75
2023-05-04T07:25:27.816Z,14.56
2023-05-04T07:28:30.756Z,14.61
2023-05-04T07:31:34.176Z,14.81
2023-05-04T07:34:45.197Z,14.93
2023-05-04T07:37:48.833Z,14.81
2023-05-04T07:40:51.548Z,14.98
2023-05-04T07:43:54.270Z,15.13
2023-05-04T07:46:59.907Z,15.23
2023-05-04T07:50:03.352Z,15.28
2023-05-04T07:53:06.528Z,15.71
2023-05-04T07:56:13.253Z,15.81
2023-05-04T07:59:19.007Z,15.98
2023-05-04T08:02:22.130Z,16.17
2023-05-04T08:05:25.294Z,16.29
2023-05-04T08:08:29.384Z,16.41
2023-05-04T08:11:34.972Z,16.67
2023-05-04T08:14:38.667Z,16.74
2023-05-04T08:17:41.711Z,16.80
2023-05-04T08:20:44.735Z,16.24
2023-05-04T08:23:47.654Z,16.57
2023-05-04T08:27:03.564Z,16.64
2023-05-04T08:30:10.478Z,16.87
2023-05-04T08:33:13.398Z,16.83
2023-05-04T08:36:16.309Z,17.03
2023-05-04T08:39:19.981Z,17.22
2023-05-04T08:42:32.997Z,17.48
2023-05-04T08:45:41.758Z,17.21
2023-05-04T08:48:46.914Z,17.22
2023-05-04T08:51:50.927Z,16.95
2023-05-04T08:54:56.142Z,16.98
2023-05-04T08:58:01.086Z,16.96
2023-05-04T09:01:04.884Z,17.03
2023-05-04T09:04:09.067Z,17.24
2023-05-04T09:07:12.245Z,17.27
2023-05-04T09:10:14.942Z,17.21
2023-05-04T09:13:18.373Z,17.62
2023-05-04T09:16:21.262Z,17.54
2023-05-04T09:19:24.151Z,17.71
2023-05-04T09:22:28.898Z,17.71
2023-05-04T09:25:31.621Z,17.47
2023-05-04T09:28:39.603Z,17.71
2023-05-04T09:31:47.652Z,17.73
2023-05-04T09:34:54.480Z,17.90
2023-05-04T09:37:58.223Z,17.80
2023-05-04T09:41:01.160Z,17.85
2023-05-04T09:44:05.008Z,18.19
2023-05-04T09:47:08.821Z,18.34
2023-05-04T09:50:20.248Z,18.09
2023-05-04T09:53:25.903Z,18.42
2023-05-04T09:56:50.121Z,18.48
2023-05-04T09:59:54.653Z,18.75
2023-05-04T10:02:57.587Z,18.65
2023-05-04T10:06:03.605Z,18.80
2023-05-04T10:09:06.755Z,18.69
2023-05-04T10:12:09.580Z,18.92
2023-05-04T10:15:12.920Z,18.93
2023-05-04T10:18:49.644Z,18.43
2023-05-04T10:22:14.173Z,18.95
2023-05-04T10:25:52.599Z,18.87
2023-05-04T10:29:16.660Z,18.79
2023-05-04T10:32:21.890Z,19.15
2023-05-04T10:35:26.072Z,19.31
2023-05-04T10:39:03.433Z,19.28
2023-05-04T10:42:09.332Z,19.52
2023-05-04T10:45:17.532Z,19.39
2023-05-04T10:48:20.306Z,19.86
2023-05-04T10:51:35.659Z,19.34
2023-05-04T10:54:45.629Z,19.55
2023-05-04T10:57:54.269Z,19.67
2023-05-04T11:00:57.313Z,20.03
2023-05-04T11:04:00.384Z,20.12
2023-05-04T11:07:05.679Z,19.87
2023-05-04T11:10:10.141Z,20.01
2023-05-04T11:13:13.242Z,20.15
2023-05-04T11:16:24.501Z,20.12
2023-05-04T11:19:27.532Z,20.52
2023-05-04T11:22:32.461Z,20.96
2023-05-04T11:25:37.211Z,20.39
2023-05-04T11:28:40.605Z,20.72
2023-05-04T11:31:45.038Z,20.56
2023-05-04T11:34:47.839Z,20.61
2023-05-04T11:37:50.950Z,20.49
2023-05-04T11:40:53.869Z,20.35
2023-05-04T11:43:57.366Z,20.53
2023-05-04T11:47:01.015Z,20.52
2023-05-04T11:50:05.403Z,20.53
2023-05-04T11:53:10.049Z,20.93
2023-05-04T11:56:12.972Z,21.00
2023-05-04T11:59:15.834Z,20.94
2023-05-04T12:02:18.961Z,20.34
2023-05-04T12:05:21.869Z,20.66
2023-05-04T12:08:35.430Z,20.70
2023-05-04T12:11:38.746Z,20.88
2023-05-04T12:14:52.410Z,20.97
2023-05-04T12:17:55.199Z,20.48
2023-05-04T12:21:10.644Z,20.88
2023-05-04T12:24:13.598Z,21.04
2023-05-04T12:27:16.342Z,21.39
2023-05-04T12:30:19.251Z,20.64
2023-05-04T12:33:22.258Z,20.75
2023-05-04T12:36:25.079Z,21.12
2023-05-04T12:39:29.867Z,20.66
2023-05-04T12:42:33.117Z,21.45
2023-05-04T12:45:35.931Z,21.44
2023-05-04T12:48:38.649Z,20.88
2023-05-04T12:51:41.496Z,20.84
2023-05-04T12:54:44.315Z,20.97
2023-05-04T12:57:47.103Z,21.28
2023-05-04T13:00:50.160Z,21.16
2023-05-04T13:03:52.944Z,21.12
2023-05-04T13:06:56.028Z,20.68
2023-05-04T13:09:59.017Z,21.21
2023-05-04T13:13:01.923Z,21.48
2023-05-04T13:16:06.134Z,21.73
2023-05-04T13:19:08.989Z,21.77
2023-05-04T13:22:11.822Z,21.80
2023-05-04T13:25:15.037Z,22.21
2023-05-04T13:28:18.633Z,21.87
2023-05-04T13:31:21.634Z,21.62
2023-05-04T13:34:24.496Z,21.09
2023-05-04T13:37:28.406Z,20.94
2023-05-04T13:40:31.246Z,21.31
2023-05-04T13:43:34.046Z,21.77
2023-05-04T13:46:37.265Z,22.09
2023-05-04T13:49:40.757Z,21.76
2023-05-04T13:52:43.549Z,21.49
2023-05-04T13:55:46.471Z,22.27
2023-05-04T13:58:49.265Z,21.37
2023-05-04T14:01:53.059Z,21.16
2023-05-04T14:04:56.276Z,21.44
2023-05-04T14:07:59.056Z,21.32
2023-05-04T14:11:02.311Z,21.33
2023-05-04T14:14:05.081Z,21.39
2023-05-04T14:17:08.349Z,21.46
2023-05-04T14:20:11.564Z,21.78
2023-05-04T14:23:14.477Z,21.95
2023-05-04T14:26:17.118Z,21.77
2023-05-04T14:29:20.158Z,21.94
2023-05-04T14:32:22.933Z,21.84
2023-05-04T14:35:25.924Z,21.61
2023-05-04T14:38:29.068Z,22.06
2023-05-04T14:41:33.971Z,22.11
2023-05-04T14:44:37.415Z,22.48
2023-05-04T14:47:42.592Z,22.71
2023-05-04T14:50:45.491Z,22.57
2023-05-04T14:53:48.279Z,22.20
2023-05-04T14:56:52.551Z,22.42
2023-05-04T14:59:55.351Z,22.50
2023-05-04T15:02:58.295Z,22.89
2023-05-04T15:06:01.423Z,23.06
2023-05-04T15:09:04.502Z,23.06
2023-05-04T15:12:07.970Z,22.51
2023-05-04T15:15:11.623Z,22.52
2023-05-04T15:18:14.610Z,22.71
2023-05-04T15:21:17.580Z,22.52
2023-05-04T15:24:20.307Z,22.11
2023-05-04T15:27:23.730Z,21.86
2023-05-04T15:30:26.386Z,21.81
2023-05-04T15:33:29.265Z,21.55
2023-05-04T15:36:32.076Z,20.95
2023-05-04T15:39:35.473Z,20.65
2023-05-04T15:42:39.129Z,20.89
2023-05-04T15:45:42.088Z,20.72
2023-05-04T15:48:45.109Z,20.49
2023-05-04T15:51:48.102Z,20.62
2023-05-04T15:54:51.370Z,20.56
2023-05-04T15:57:54.307Z,20.64
2023-05-04T16:00:57.650Z,20.62
2023-05-04T16:04:01.141Z,20.77
2023-05-04T16:07:03.822Z,21.03
2023-05-04T16:10:07.576Z,21.17
2023-05-04T16:13:12.167Z,21.49
2023-05-04T16:16:15.155Z,21.77
2023-05-04T16:19:18.330Z,21.61
2023-05-04T16:22:21.035Z,21.39
2023-05-04T16:25:23.957Z,21.20
2023-05-04T16:28:26.642Z,21.18
2023-05-04T16:31:29.747Z,21.04
2023-05-04T16:34:32.660Z,20.91
2023-05-04T16:37:37.244Z,20.68
2023-05-04T16:40:41.739Z,20.56
2023-05-04T16:43:44.539Z,20.56
2023-05-04T16:46:47.443Z,20.64
2023-05-04T16:49:50.477Z,20.54
2023-05-04T16:52:53.133Z,20.34
2023-05-04T16:55:56.261Z,20.16
2023-05-04T16:58:59.150Z,20.09
2023-05-04T17:02:01.971Z,19.86
2023-05-04T17:05:06.999Z,19.58
2023-05-04T17:08:11.883Z,19.57
2023-05-04T17:11:14.785Z,19.35
2023-05-04T17:14:17.519Z,19.18
2023-05-04T17:17:20.410Z,19.04
2023-05-04T17:20:25.155Z,18.88
2023-05-04T17:23:28.501Z,18.76
2023-05-04T17:26:31.623Z,18.59
2023-05-04T17:29:34.594Z,18.43
2023-05-04T17:32:37.916Z,18.23
2023-05-04T17:35:41.381Z,18.01
2023-05-04T17:38:45.125Z,17.81
2023-05-04T17:41:51.400Z,17.62
2023-05-04T17:44:54.328Z,17.57
2023-05-04T17:47:57.726Z,17.40
2023-05-04T17:51:00.868Z,17.38
2023-05-04T17:54:03.900Z,17.00
2023-05-04T17:57:06.879Z,16.77
2023-05-04T18:00:11.407Z,16.57
2023-05-04T18:03:14.572Z,16.44
2023-05-04T18:06:17.541Z,16.30
2023-05-04T18:09:20.873Z,16.33
2023-05-04T18:12:23.679Z,16.13
2023-05-04T18:15:29.771Z,15.99
2023-05-04T18:18:32.729Z,15.81
2023-05-04T18:21:37.569Z,15.71
2023-05-04T18:24:40.302Z,15.37
2023-05-04T18:27:43.499Z,15.34
2023-05-04T18:30:46.465Z,15.03
2023-05-04T18:33:49.495Z,14.80
2023-05-04T18:36:52.441Z,14.66
2023-05-04T18:39:55.373Z,14.53
2023-05-04T18:42:58.157Z,14.46
2023-05-04T18:46:07.997Z,14.34
2023-05-04T18:49:11.133Z,14.28
2023-05-04T18:52:14.134Z,14.09
2023-05-04T18:55:16.861Z,14.16
2023-05-04T18:58:19.784Z,14.27
2023-05-04T19:01:22.858Z,14.10
2023-05-04T19:04:25.581Z,14.24
2023-05-04T19:07:28.402Z,14.25
2023-05-04T19:10:32.240Z,14.24
2023-05-04T19:13:35.091Z,14.19
2023-05-04T19:16:37.922Z,14.21
2023-05-04T19:19:41.044Z,14.14
2023-05-04T19:22:43.927Z,14.25
2023-05-04T19:25:46.701Z,14.19
2023-05-04T19:28:49.733Z,14.20
2023-05-04T19:31:52.541Z,14.08
2023-05-04T19:34:55.360Z,13.72
2023-05-04T19:37:58.767Z,13.54
2023-05-04T19:41:02.077Z,13.50
2023-05-04T19:44:10.410Z,13.42
2023-05-04T19:47:13.167Z,13.25
2023-05-04T19:50:16.913Z,13.13
2023-05-04T19:53:19.845Z,13.06
2023-05-04T19:56:22.987Z,12.97
2023-05-04T19:59:25.859Z,12.78
2023-05-04T20:02:29.569Z,12.92
2023-05-04T20:05:32.686Z,13.01
2023-05-04T20:08:35.921Z,12.94
2023-05-04T20:11:38.819Z,12.93
2023-05-04T20:14:43.027Z,12.72
2023-05-04T20:17:45.891Z,12.70
2023-05-04T20:20:48.695Z,12.59
2023-05-04T20:23:51.902Z,12.60
2023-05-04T20:26:54.645Z,12.65
2023-05-04T20:29:57.528Z,12.54
2023-05-04T20:33:00.517Z,12.47
2023-05-04T20:36:05.046Z,12.46
2023-05-04T20:39:08.046Z,12.30
2023-05-04T20:42:11.110Z,12.22
2023-05-04T20:45:14.116Z,12.11
2023-05-04T20:48:17.007Z,12.14
2023-05-04T20:51:19.913Z,12.21
2023-05-04T20:54:23.402Z,12.22
2023-05-04T20:57:26.338Z,12.20
2023-05-04T21:00:31.001Z,12.07
2023-05-04T21:03:35.352Z,11.77
2023-05-04T21:06:38.379Z,11.69
2023-05-04T21:09:41.387Z,11.72
2023-05-04T21:12:44.294Z,11.76
2023-05-04T21:15:47.406Z,11.67
2023-05-04T21:18:50.228Z,11.48
2023-05-04T21:21:52.941Z,11.50
2023-05-04T21:24:56.123Z,11.40
2023-05-04T21:27:58.883Z,11.39
2023-05-04T21:31:01.842Z,11.33
2023-05-04T21:34:04.662Z,11.22
2023-05-04T21:37:07.463Z,11.15
2023-05-04T21:40:10.684Z,11.19
2023-05-04T21:43:13.466Z,11.28
2023-05-04T21:46:16.267Z,11.20
2023-05-04T21:49:19.025Z,11.10
2023-05-04T21:52:22.170Z,11.06
2023-05-04T21:55:24.860Z,10.98
2023-05-04T21:58:28.004Z,10.81
2023-05-04T22:01:30.771Z,10.92
2023-05-04T22:04:33.522Z,10.71
2023-05-04T22:07:36.856Z,10.61
2023-05-04T22:10:39.553Z,10.49
2023-05-04T22:13:42.273Z,10.56
2023-05-04T22:16:45.054Z,10.55
2023-05-04T22:19:47.960Z,10.45
2023-05-04T22:22:51.412Z,10.43
2023-05-04T22:25:54.229Z,10.42
2023-05-04T22:28:56.873Z,10.43
2023-05-04T22:31:59.569Z,10.29
2023-05-04T22:35:02.636Z,10.25
2023-05-04T22:38:05.432Z,10.17
2023-05-04T22:41:08.207Z,10.14
2023-05-04T22:44:11.670Z,10.08
2023-05-04T22:47:14.349Z,10.15
2023-05-04T22:50:17.753Z,10.12
2023-05-04T22:53:20.637Z,10.06
2023-05-04T22:56:26.415Z,10.13
2023-05-04T22:59:29.232Z,10.04
2023-05-04T23:02:32.140Z,9.95
2023-05-04T23:05:34.980Z,9.95
2023-05-04T23:08:38.008Z,9.88
2023-05-04T23:11:41.016Z,9.95
2023-05-04T23:14:43.760Z,9.93
2023-05-04T23:17:46.419Z,9.90
2023-05-04T23:20:49.131Z,9.89
2023-05-04T23:23:52.381Z,9.77
2023-05-04T23:26:55.059Z,9.60
2023-05-04T23:29:57.771Z,9.49
2023-05-04T23:33:00.606Z,9.40
2023-05-04T23:36:03.451Z,9.53
2023-05-04T23:39:06.251Z,9.58
2023-05-04T23:42:08.989Z,9.67
2023-05-04T23:45:12.092Z,9.52
2023-05-04T23:48:14.938Z,9.49
2023-05-04T23:51:17.612Z,9.55
2023-05-04T23:54:20.362Z,9.51
2023-05-04T23:57:23.031Z,9.45
